sensor_id;sensor_type;location;lat;lon;timestamp;pressure;altitude;pressure_sealevel;temperature;humidity
52975;BME280;38839;45.186;5.720;2023-04-19T00:00:55;99302.41;;;11.59;75.11
52975;BME280;38839;45.186;5.720;2023-04-19T00:03:21;99304.16;;;11.59;75.22
52975;BME280;38839;45.186;5.720;2023-04-19T00:05:48;99306.75;;;11.57;75.08
52975;BME280;38839;45.186;5.720;2023-04-19T00:08:14;99309.34;;;11.60;75.18
52975;BME280;38839;45.186;5.720;2023-04-19T00:10:41;99305.91;;;11.55;75.16
52975;BME280;38839;45.186;5.720;2023-04-19T00:13:07;99303.31;;;11.49;75.04
52975;BME280;38839;45.186;5.720;2023-04-19T00:15:32;99302.44;;;11.45;75.04
52975;BME280;38839;45.186;5.720;2023-04-19T00:17:59;99305.94;;;11.40;74.81
52975;BME280;38839;45.186;5.720;2023-04-19T00:20:24;99304.22;;;11.39;74.68
52975;BME280;38839;45.186;5.720;2023-04-19T00:22:50;99302.50;;;11.36;74.45
52975;BME280;38839;45.186;5.720;2023-04-19T00:25:15;99296.44;;;11.26;74.80
52975;BME280;38839;45.186;5.720;2023-04-19T00:27:40;99307.75;;;11.28;74.60
52975;BME280;38839;45.186;5.720;2023-04-19T00:30:06;99306.88;;;11.25;74.50
52975;BME280;38839;45.186;5.720;2023-04-19T00:32:32;99306.06;;;11.11;74.62
52975;BME280;38839;45.186;5.720;2023-04-19T00:34:57;99308.69;;;11.12;74.72
52975;BME280;38839;45.186;5.720;2023-04-19T00:37:23;99305.19;;;11.10;74.65
52975;BME280;38839;45.186;5.720;2023-04-19T00:39:48;99296.50;;;11.06;74.93
52975;BME280;38839;45.186;5.720;2023-04-19T00:42:13;99300.00;;;11.04;74.74
52975;BME280;38839;45.186;5.720;2023-04-19T00:44:39;99299.13;;;10.99;74.82
52975;BME280;38839;45.186;5.720;2023-04-19T00:47:04;99307.81;;;11.01;74.88
52975;BME280;38839;45.186;5.720;2023-04-19T00:49:30;99309.56;;;10.99;74.89
52975;BME280;38839;45.186;5.720;2023-04-19T00:51:55;99303.50;;;10.94;75.04
52975;BME280;38839;45.186;5.720;2023-04-19T00:54:22;99310.47;;;10.92;75.19
52975;BME280;38839;45.186;5.720;2023-04-19T00:56:47;99309.59;;;10.97;75.28
52975;BME280;38839;45.186;5.720;2023-04-19T00:59:13;99302.63;;;10.92;75.32
52975;BME280;38839;45.186;5.720;2023-04-19T01:01:41;99305.25;;;10.92;75.35
52975;BME280;38839;45.186;5.720;2023-04-19T01:04:07;99301.75;;;10.93;75.37
52975;BME280;38839;45.186;5.720;2023-04-19T01:06:33;99296.53;;;10.93;75.30
52975;BME280;38839;45.186;5.720;2023-04-19T01:09:00;99288.69;;;10.94;75.30
52975;BME280;38839;45.186;5.720;2023-04-19T01:11:26;99294.81;;;10.92;75.45
52975;BME280;38839;45.186;5.720;2023-04-19T01:13:51;99293.06;;;10.84;75.33
52975;BME280;38839;45.186;5.720;2023-04-19T01:16:17;99296.56;;;10.80;75.34
52975;BME280;38839;45.186;5.720;2023-04-19T01:18:43;99287.00;;;10.78;75.34
52975;BME280;38839;45.186;5.720;2023-04-19T01:21:09;99294.81;;;10.78;75.28
52975;BME280;38839;45.186;5.720;2023-04-19T01:23:35;99299.19;;;10.79;75.22
52975;BME280;38839;45.186;5.720;2023-04-19T01:26:01;99297.44;;;10.72;75.73
52975;BME280;38839;45.186;5.720;2023-04-19T01:28:27;99293.97;;;10.68;75.71
52975;BME280;38839;45.186;5.720;2023-04-19T01:30:53;99294.81;;;10.70;75.80
52975;BME280;38839;45.186;5.720;2023-04-19T01:33:19;99295.72;;;10.64;76.07
52975;BME280;38839;45.186;5.720;2023-04-19T01:35:46;99282.66;;;10.60;76.03
52975;BME280;38839;45.186;5.720;2023-04-19T01:38:12;99294.84;;;10.61;75.82
52975;BME280;38839;45.186;5.720;2023-04-19T01:40:37;99287.91;;;10.63;75.54
52975;BME280;38839;45.186;5.720;2023-04-19T01:43:03;99286.13;;;10.62;75.57
52975;BME280;38839;45.186;5.720;2023-04-19T01:45:28;99287.88;;;10.54;75.43
52975;BME280;38839;45.186;5.720;2023-04-19T01:47:54;99283.56;;;10.54;75.36
52975;BME280;38839;45.186;5.720;2023-04-19T01:50:20;99281.81;;;10.49;75.44
52975;BME280;38839;45.186;5.720;2023-04-19T01:52:45;99285.28;;;10.55;75.24
52975;BME280;38839;45.186;5.720;2023-04-19T01:55:11;99277.44;;;10.54;75.34
52975;BME280;38839;45.186;5.720;2023-04-19T01:57:36;99286.16;;;10.56;75.48
52975;BME280;38839;45.186;5.720;2023-04-19T02:00:02;99284.44;;;10.55;75.70
52975;BME280;38839;45.186;5.720;2023-04-19T02:02:28;99277.47;;;10.51;76.13
52975;BME280;38839;45.186;5.720;2023-04-19T02:04:53;99289.63;;;10.55;76.24
52975;BME280;38839;45.186;5.720;2023-04-19T02:07:18;99290.50;;;10.54;76.72
52975;BME280;38839;45.186;5.720;2023-04-19T02:09:44;99291.38;;;10.56;76.69
52975;BME280;38839;45.186;5.720;2023-04-19T02:12:09;99294.84;;;10.55;77.01
52975;BME280;38839;45.186;5.720;2023-04-19T02:14:34;99293.09;;;10.47;76.83
52975;BME280;38839;45.186;5.720;2023-04-19T02:17:00;99290.53;;;10.38;77.60
52975;BME280;38839;45.186;5.720;2023-04-19T02:19:25;99288.78;;;10.36;79.19
52975;BME280;38839;45.186;5.720;2023-04-19T02:21:51;99291.38;;;10.31;80.16
52975;BME280;38839;45.186;5.720;2023-04-19T02:24:17;99294.81;;;10.27;80.86
52975;BME280;38839;45.186;5.720;2023-04-19T02:26:43;99298.28;;;10.04;82.61
52975;BME280;38839;45.186;5.720;2023-04-19T02:29:08;99302.59;;;9.82;84.70
52975;BME280;38839;45.186;5.720;2023-04-19T02:31:35;99299.94;;;9.58;85.53
52975;BME280;38839;45.186;5.720;2023-04-19T02:34:00;99303.34;;;9.46;86.06
52975;BME280;38839;45.186;5.720;2023-04-19T02:36:26;99297.28;;;9.45;85.70
52975;BME280;38839;45.186;5.720;2023-04-19T02:38:51;99293.78;;;9.37;85.97
52975;BME280;38839;45.186;5.720;2023-04-19T02:41:16;99299.00;;;9.46;85.89
52975;BME280;38839;45.186;5.720;2023-04-19T02:43:42;99294.72;;;9.61;85.05
52975;BME280;38839;45.186;5.720;2023-04-19T02:46:09;99298.22;;;9.74;84.56
52975;BME280;38839;45.186;5.720;2023-04-19T02:48:34;99296.50;;;9.82;83.52
52975;BME280;38839;45.186;5.720;2023-04-19T02:51:00;99299.13;;;9.86;83.80
52975;BME280;38839;45.186;5.720;2023-04-19T02:53:25;99300.00;;;9.90;83.75
52975;BME280;38839;45.186;5.720;2023-04-19T02:55:51;99302.59;;;9.90;83.61
52975;BME280;38839;45.186;5.720;2023-04-19T02:58:16;99298.25;;;9.92;83.57
52975;BME280;38839;45.186;5.720;2023-04-19T03:00:41;99295.66;;;9.92;83.31
52975;BME280;38839;45.186;5.720;2023-04-19T03:03:10;99291.34;;;9.93;83.29
52975;BME280;38839;45.186;5.720;2023-04-19T03:05:37;99294.78;;;9.92;82.92
52975;BME280;38839;45.186;5.720;2023-04-19T03:08:03;99286.97;;;9.89;82.53
52975;BME280;38839;45.186;5.720;2023-04-19T03:10:28;99297.41;;;9.95;82.30
52975;BME280;38839;45.186;5.720;2023-04-19T03:12:53;99295.66;;;9.91;82.18
52975;BME280;38839;45.186;5.720;2023-04-19T03:15:19;99302.63;;;9.95;82.06
52975;BME280;38839;45.186;5.720;2023-04-19T03:17:44;99296.53;;;9.91;81.97
52975;BME280;38839;45.186;5.720;2023-04-19T03:20:10;99300.00;;;9.93;81.62
52975;BME280;38839;45.186;5.720;2023-04-19T03:22:36;99303.50;;;9.95;81.28
52975;BME280;38839;45.186;5.720;2023-04-19T03:25:02;99306.97;;;9.93;81.11
52975;BME280;38839;45.186;5.720;2023-04-19T03:27:28;99304.34;;;9.91;81.33
52975;BME280;38839;45.186;5.720;2023-04-19T03:29:54;99297.41;;;9.89;80.32
52975;BME280;38839;45.186;5.720;2023-04-19T03:32:20;99295.63;;;9.86;79.34
52975;BME280;38839;45.186;5.720;2023-04-19T03:34:45;99296.53;;;9.85;78.88
52975;BME280;38839;45.186;5.720;2023-04-19T03:37:11;99301.72;;;9.85;79.06
52975;BME280;38839;45.186;5.720;2023-04-19T03:39:36;99301.72;;;9.82;78.57
52975;BME280;38839;45.186;5.720;2023-04-19T03:42:04;99296.50;;;9.79;78.66
52975;BME280;38839;45.186;5.720;2023-04-19T03:44:33;99300.81;;;9.71;77.86
52975;BME280;38839;45.186;5.720;2023-04-19T03:46:58;99299.97;;;9.70;77.54
52975;BME280;38839;45.186;5.720;2023-04-19T03:49:23;99298.19;;;9.64;77.50
52975;BME280;38839;45.186;5.720;2023-04-19T03:51:49;99299.06;;;9.62;77.35
52975;BME280;38839;45.186;5.720;2023-04-19T03:54:14;99301.63;;;9.57;77.41
52975;BME280;38839;45.186;5.720;2023-04-19T03:56:40;99302.53;;;9.56;77.47
52975;BME280;38839;45.186;5.720;2023-04-19T03:59:05;99299.91;;;9.56;77.49
52975;BME280;38839;45.186;5.720;2023-04-19T04:01:32;99302.53;;;9.56;77.55
52975;BME280;38839;45.186;5.720;2023-04-19T04:03:57;99298.19;;;9.58;77.28
52975;BME280;38839;45.186;5.720;2023-04-19T04:06:22;99299.91;;;9.50;77.38
52975;BME280;38839;45.186;5.720;2023-04-19T04:08:48;99305.09;;;9.44;77.44
52975;BME280;38839;45.186;5.720;2023-04-19T04:11:13;99298.16;;;9.46;77.46
52975;BME280;38839;45.186;5.720;2023-04-19T04:13:38;99298.13;;;9.44;77.43
52975;BME280;38839;45.186;5.720;2023-04-19T04:16:04;99308.53;;;9.43;77.77
52975;BME280;38839;45.186;5.720;2023-04-19T04:18:29;99303.31;;;9.40;77.43
52975;BME280;38839;45.186;5.720;2023-04-19T04:20:56;99296.38;;;9.37;77.39
52975;BME280;38839;45.186;5.720;2023-04-19T04:23:21;99301.53;;;9.33;77.33
52975;BME280;38839;45.186;5.720;2023-04-19T04:25:46;99308.50;;;9.37;77.49
52975;BME280;38839;45.186;5.720;2023-04-19T04:28:12;99314.59;;;9.31;77.04
52975;BME280;38839;45.186;5.720;2023-04-19T04:30:38;99310.22;;;9.35;77.18
52975;BME280;38839;45.186;5.720;2023-04-19T04:33:07;99312.00;;;9.36;76.92
52975;BME280;38839;45.186;5.720;2023-04-19T04:35:32;99313.72;;;9.34;76.98
52975;BME280;38839;45.186;5.720;2023-04-19T04:37:59;99319.78;;;9.34;76.87
52975;BME280;38839;45.186;5.720;2023-04-19T04:40:27;99318.06;;;9.33;76.61
52975;BME280;38839;45.186;5.720;2023-04-19T04:42:53;99316.31;;;9.29;76.21
52975;BME280;38839;45.186;5.720;2023-04-19T04:45:18;99317.13;;;9.26;76.02
52975;BME280;38839;45.186;5.720;2023-04-19T04:47:44;99318.91;;;9.31;75.93
52975;BME280;38839;45.186;5.720;2023-04-19T04:50:12;99322.38;;;9.33;75.79
52975;BME280;38839;45.186;5.720;2023-04-19T04:52:37;99327.59;;;9.33;75.55
52975;BME280;38839;45.186;5.720;2023-04-19T04:55:02;99325.00;;;9.31;75.69
52975;BME280;38839;45.186;5.720;2023-04-19T04:57:28;99328.50;;;9.38;75.23
52975;BME280;38839;45.186;5.720;2023-04-19T04:59:53;99331.09;;;9.38;75.24
52975;BME280;38839;45.186;5.720;2023-04-19T05:02:20;99328.50;;;9.38;75.30
52975;BME280;38839;45.186;5.720;2023-04-19T05:04:48;99333.69;;;9.38;75.36
52975;BME280;38839;45.186;5.720;2023-04-19T05:07:13;99332.84;;;9.45;75.50
52975;BME280;38839;45.186;5.720;2023-04-19T05:09:39;99336.34;;;9.50;75.15
52975;BME280;38839;45.186;5.720;2023-04-19T05:12:04;99336.38;;;9.56;75.32
52975;BME280;38839;45.186;5.720;2023-04-19T05:14:32;99332.91;;;9.59;75.36
52975;BME280;38839;45.186;5.720;2023-04-19T05:17:00;99338.13;;;9.60;75.85
52975;BME280;38839;45.186;5.720;2023-04-19T05:19:27;99335.69;;;11.02;72.67
52975;BME280;38839;45.186;5.720;2023-04-19T05:21:55;99335.47;;;12.92;66.18
52975;BME280;38839;45.186;5.720;2023-04-19T05:24:20;99333.56;;;13.83;62.48
52975;BME280;38839;45.186;5.720;2023-04-19T05:26:49;99332.69;;;14.98;59.26
52975;BME280;38839;45.186;5.720;2023-04-19T05:29:15;99327.19;;;15.97;56.91
52975;BME280;38839;45.186;5.720;2023-04-19T05:31:41;99332.28;;;16.42;54.88
52975;BME280;38839;45.186;5.720;2023-04-19T05:34:06;99338.47;;;14.09;60.84
52975;BME280;38839;45.186;5.720;2023-04-19T05:36:32;99336.59;;;12.64;65.75
52975;BME280;38839;45.186;5.720;2023-04-19T05:39:00;99340.63;;;11.79;68.69
52975;BME280;38839;45.186;5.720;2023-04-19T05:41:27;99346.94;;;11.22;71.25
52975;BME280;38839;45.186;5.720;2023-04-19T05:43:52;99341.78;;;10.98;72.19
52975;BME280;38839;45.186;5.720;2023-04-19T05:46:17;99339.16;;;10.95;72.35
52975;BME280;38839;45.186;5.720;2023-04-19T05:48:43;99340.00;;;11.09;71.88
52975;BME280;38839;45.186;5.720;2023-04-19T05:51:08;99336.53;;;11.01;72.61
52975;BME280;38839;45.186;5.720;2023-04-19T05:53:34;99344.41;;;10.78;74.09
52975;BME280;38839;45.186;5.720;2023-04-19T05:55:59;99340.06;;;10.81;74.28
52975;BME280;38839;45.186;5.720;2023-04-19T05:58:25;99337.44;;;10.84;74.75
52975;BME280;38839;45.186;5.720;2023-04-19T06:00:51;99340.91;;;11.02;74.18
52975;BME280;38839;45.186;5.720;2023-04-19T06:03:16;99337.41;;;11.03;73.90
52975;BME280;38839;45.186;5.720;2023-04-19T06:05:42;99330.44;;;11.06;73.85
52975;BME280;38839;45.186;5.720;2023-04-19T06:08:07;99333.09;;;10.90;74.89
52975;BME280;38839;45.186;5.720;2023-04-19T06:10:34;99333.09;;;10.90;74.68
52975;BME280;38839;45.186;5.720;2023-04-19T06:12:59;99340.03;;;11.00;74.55
52975;BME280;38839;45.186;5.720;2023-04-19T06:15:25;99341.78;;;10.82;75.21
52975;BME280;38839;45.186;5.720;2023-04-19T06:17:51;99341.78;;;10.98;74.90
52975;BME280;38839;45.186;5.720;2023-04-19T06:20:16;99337.41;;;11.06;74.44
52975;BME280;38839;45.186;5.720;2023-04-19T06:22:44;99346.09;;;11.05;74.75
52975;BME280;38839;45.186;5.720;2023-04-19T06:25:09;99340.03;;;10.94;74.98
52975;BME280;38839;45.186;5.720;2023-04-19T06:27:35;99341.78;;;10.88;75.22
52975;BME280;38839;45.186;5.720;2023-04-19T06:30:01;99339.19;;;10.93;75.19
52975;BME280;38839;45.186;5.720;2023-04-19T06:32:26;99333.09;;;10.83;75.54
52975;BME280;38839;45.186;5.720;2023-04-19T06:34:51;99338.31;;;10.80;75.83
52975;BME280;38839;45.186;5.720;2023-04-19T06:37:17;99337.44;;;10.89;75.58
52975;BME280;38839;45.186;5.720;2023-04-19T06:39:42;99338.28;;;11.02;74.90
52975;BME280;38839;45.186;5.720;2023-04-19T06:42:08;99334.81;;;10.97;75.26
52975;BME280;38839;45.186;5.720;2023-04-19T06:44:33;99334.81;;;10.91;75.36
52975;BME280;38839;45.186;5.720;2023-04-19T06:46:59;99337.41;;;11.03;75.17
52975;BME280;38839;45.186;5.720;2023-04-19T06:49:24;99332.19;;;11.04;74.81
52975;BME280;38839;45.186;5.720;2023-04-19T06:51:50;99330.44;;;11.08;74.89
52975;BME280;38839;45.186;5.720;2023-04-19T06:54:15;99329.56;;;11.09;74.82
52975;BME280;38839;45.186;5.720;2023-04-19T06:56:48;99325.19;;;11.20;74.68
52975;BME280;38839;45.186;5.720;2023-04-19T06:59:18;99328.69;;;11.16;74.45
52975;BME280;38839;45.186;5.720;2023-04-19T07:01:44;99330.44;;;11.16;74.35
52975;BME280;38839;45.186;5.720;2023-04-19T07:04:13;99326.94;;;11.20;74.09
52975;BME280;38839;45.186;5.720;2023-04-19T07:06:39;99326.91;;;11.29;73.95
52975;BME280;38839;45.186;5.720;2023-04-19T07:09:06;99326.03;;;11.25;73.92
52975;BME280;38839;45.186;5.720;2023-04-19T07:11:32;99322.56;;;11.26;73.92
52975;BME280;38839;45.186;5.720;2023-04-19T07:13:57;99319.03;;;11.34;73.73
52975;BME280;38839;45.186;5.720;2023-04-19T07:16:26;99317.28;;;11.37;73.49
52975;BME280;38839;45.186;5.720;2023-04-19T07:18:51;99316.34;;;11.52;73.33
52975;BME280;38839;45.186;5.720;2023-04-19T07:21:17;99318.06;;;11.58;72.73
52975;BME280;38839;45.186;5.720;2023-04-19T07:23:42;99312.00;;;11.57;72.31
52975;BME280;38839;45.186;5.720;2023-04-19T07:26:08;99311.97;;;11.63;72.14
52975;BME280;38839;45.186;5.720;2023-04-19T07:28:33;99310.13;;;11.75;71.67
52975;BME280;38839;45.186;5.720;2023-04-19T07:30:58;99317.13;;;11.76;71.50
52975;BME280;38839;45.186;5.720;2023-04-19T07:33:25;99323.19;;;11.88;71.68
52975;BME280;38839;45.186;5.720;2023-04-19T07:35:50;99310.06;;;11.96;70.69
52975;BME280;38839;45.186;5.720;2023-04-19T07:38:16;99309.09;;;12.11;70.44
52975;BME280;38839;45.186;5.720;2023-04-19T07:40:41;99307.28;;;12.18;69.87
52975;BME280;38839;45.186;5.720;2023-04-19T07:43:07;99305.53;;;12.24;69.32
52975;BME280;38839;45.186;5.720;2023-04-19T07:45:32;99292.31;;;12.38;69.24
52975;BME280;38839;45.186;5.720;2023-04-19T07:47:58;99293.03;;;12.57;68.35
52975;BME280;38839;45.186;5.720;2023-04-19T07:50:24;99297.28;;;12.69;67.86
52975;BME280;38839;45.186;5.720;2023-04-19T07:52:50;99296.16;;;12.93;67.42
52975;BME280;38839;45.186;5.720;2023-04-19T07:55:15;99294.16;;;13.18;66.16
52975;BME280;38839;45.186;5.720;2023-04-19T07:57:41;99290.31;;;13.50;65.24
52975;BME280;38839;45.186;5.720;2023-04-19T08:00:11;99290.00;;;13.72;63.63
52975;BME280;38839;45.186;5.720;2023-04-19T08:02:37;99287.94;;;13.97;63.00
52975;BME280;38839;45.186;5.720;2023-04-19T08:05:02;99282.69;;;14.49;61.98
52975;BME280;38839;45.186;5.720;2023-04-19T08:07:28;99278.34;;;15.00;60.74
52975;BME280;38839;45.186;5.720;2023-04-19T08:09:53;99284.44;;;15.02;59.76
52975;BME280;38839;45.186;5.720;2023-04-19T08:12:19;99280.59;;;14.73;59.44
52975;BME280;38839;45.186;5.720;2023-04-19T08:14:44;99273.59;;;14.72;59.42
52975;BME280;38839;45.186;5.720;2023-04-19T08:17:10;99269.75;;;14.92;59.34
52975;BME280;38839;45.186;5.720;2023-04-19T08:19:36;99264.75;;;15.23;58.59
52975;BME280;38839;45.186;5.720;2023-04-19T08:22:04;99259.00;;;15.88;57.49
52975;BME280;38839;45.186;5.720;2023-04-19T08:24:30;99257.75;;;16.04;56.24
52975;BME280;38839;45.186;5.720;2023-04-19T08:26:55;99257.81;;;16.37;55.92
52975;BME280;38839;45.186;5.720;2023-04-19T08:29:21;99255.41;;;16.28;55.73
52975;BME280;38839;45.186;5.720;2023-04-19T08:31:47;99252.06;;;16.21;55.82
52975;BME280;38839;45.186;5.720;2023-04-19T08:34:13;99257.19;;;16.27;54.80
52975;BME280;38839;45.186;5.720;2023-04-19T08:36:38;99247.38;;;15.56;55.53
52975;BME280;38839;45.186;5.720;2023-04-19T08:39:03;99239.19;;;16.11;55.36
52975;BME280;38839;45.186;5.720;2023-04-19T08:41:31;99240.06;;;16.45;53.92
52975;BME280;38839;45.186;5.720;2023-04-19T08:43:58;99244.63;;;16.01;53.84
52975;BME280;38839;45.186;5.720;2023-04-19T08:46:26;99236.56;;;15.73;53.82
52975;BME280;38839;45.186;5.720;2023-04-19T08:48:51;99228.78;;;16.04;53.81
52975;BME280;38839;45.186;5.720;2023-04-19T08:51:18;99231.66;;;16.31;52.56
52975;BME280;38839;45.186;5.720;2023-04-19T08:53:44;99225.97;;;16.46;52.22
52975;BME280;38839;45.186;5.720;2023-04-19T08:56:10;99230.41;;;16.44;52.03
52975;BME280;38839;45.186;5.720;2023-04-19T08:58:36;99224.38;;;16.05;52.30
52975;BME280;38839;45.186;5.720;2023-04-19T09:01:04;99228.53;;;15.78;53.37
52975;BME280;38839;45.186;5.720;2023-04-19T09:03:29;99222.06;;;16.28;53.08
52975;BME280;38839;45.186;5.720;2023-04-19T09:05:58;99219.75;;;16.83;52.08
52975;BME280;38839;45.186;5.720;2023-04-19T09:08:28;99215.53;;;16.76;52.09
52975;BME280;38839;45.186;5.720;2023-04-19T09:10:59;99213.78;;;17.08;51.04
52975;BME280;38839;45.186;5.720;2023-04-19T09:13:25;99205.16;;;17.33;49.99
52975;BME280;38839;45.186;5.720;2023-04-19T09:15:51;99209.44;;;17.37;50.21
52975;BME280;38839;45.186;5.720;2023-04-19T09:18:18;99204.81;;;17.15;50.82
52975;BME280;38839;45.186;5.720;2023-04-19T09:20:44;99202.78;;;17.25;50.71
52975;BME280;38839;45.186;5.720;2023-04-19T09:23:12;99207.34;;;16.88;50.11
52975;BME280;38839;45.186;5.720;2023-04-19T09:25:38;99196.41;;;16.69;51.28
52975;BME280;38839;45.186;5.720;2023-04-19T09:28:08;99187.56;;;16.39;51.27
52975;BME280;38839;45.186;5.720;2023-04-19T09:30:37;99184.81;;;16.75;51.50
52975;BME280;38839;45.186;5.720;2023-04-19T09:33:03;99180.53;;;17.34;49.16
52975;BME280;38839;45.186;5.720;2023-04-19T09:35:47;99164.78;;;17.60;48.35
52975;BME280;38839;45.186;5.720;2023-04-19T09:38:14;99173.00;;;17.78;48.32
52975;BME280;38839;45.186;5.720;2023-04-19T09:40:40;99168.91;;;17.97;46.55
52975;BME280;38839;45.186;5.720;2023-04-19T09:43:06;99161.94;;;17.95;47.38
52975;BME280;38839;45.186;5.720;2023-04-19T09:45:43;99159.56;;;17.87;47.82
52975;BME280;38839;45.186;5.720;2023-04-19T09:48:09;99153.47;;;17.85;48.21
52975;BME280;38839;45.186;5.720;2023-04-19T09:50:36;99146.63;;;17.78;48.25
52975;BME280;38839;45.186;5.720;2023-04-19T09:53:14;99150.72;;;17.88;48.05
52975;BME280;38839;45.186;5.720;2023-04-19T09:55:41;99142.41;;;17.72;48.18
52975;BME280;38839;45.186;5.720;2023-04-19T09:58:08;99137.97;;;17.46;48.91
52975;BME280;38839;45.186;5.720;2023-04-19T10:00:34;99132.59;;;17.76;48.64
52975;BME280;38839;45.186;5.720;2023-04-19T10:03:00;99135.06;;;18.08;48.38
52975;BME280;38839;45.186;5.720;2023-04-19T10:05:25;99121.03;;;17.80;48.60
52975;BME280;38839;45.186;5.720;2023-04-19T10:07:52;99126.56;;;17.45;49.09
52975;BME280;38839;45.186;5.720;2023-04-19T10:10:18;99121.53;;;17.38;49.64
52975;BME280;38839;45.186;5.720;2023-04-19T10:12:48;99112.50;;;17.45;49.87
52975;BME280;38839;45.186;5.720;2023-04-19T10:15:19;99117.69;;;17.48;49.60
52975;BME280;38839;45.186;5.720;2023-04-19T10:17:45;99113.31;;;17.47;49.80
52975;BME280;38839;45.186;5.720;2023-04-19T10:20:29;99109.16;;;17.40;50.26
52975;BME280;38839;45.186;5.720;2023-04-19T10:22:57;99105.41;;;17.47;50.20
52975;BME280;38839;45.186;5.720;2023-04-19T10:25:29;99098.47;;;17.71;49.70
52975;BME280;38839;45.186;5.720;2023-04-19T10:27:58;99101.63;;;17.82;49.24
52975;BME280;38839;45.186;5.720;2023-04-19T10:30:24;99100.22;;;17.72;49.64
52975;BME280;38839;45.186;5.720;2023-04-19T10:32:56;99088.75;;;17.72;49.40
52975;BME280;38839;45.186;5.720;2023-04-19T10:35:33;99088.72;;;17.73;48.91
52975;BME280;38839;45.186;5.720;2023-04-19T10:38:09;99081.66;;;17.74;49.15
52975;BME280;38839;45.186;5.720;2023-04-19T10:43:18;99077.91;;;18.07;48.72
52975;BME280;38839;45.186;5.720;2023-04-19T10:45:45;99074.63;;;18.26;48.36
52975;BME280;38839;45.186;5.720;2023-04-19T10:51:10;99069.53;;;18.21;48.32
52975;BME280;38839;45.186;5.720;2023-04-19T10:53:52;99064.69;;;18.33;47.59
52975;BME280;38839;45.186;5.720;2023-04-19T11:04:11;99049.84;;;18.54;46.81
52975;BME280;38839;45.186;5.720;2023-04-19T11:09:31;99035.91;;;18.50;46.06
52975;BME280;38839;45.186;5.720;2023-04-19T11:12:07;99019.72;;;18.58;45.80
52975;BME280;38839;45.186;5.720;2023-04-19T11:14:38;99021.69;;;18.76;45.31
52975;BME280;38839;45.186;5.720;2023-04-19T11:17:23;99010.66;;;18.88;44.80
52975;BME280;38839;45.186;5.720;2023-04-19T11:22:25;99001.81;;;18.89;44.62
52975;BME280;38839;45.186;5.720;2023-04-19T11:24:51;98998.25;;;18.90;45.16
52975;BME280;38839;45.186;5.720;2023-04-19T11:27:16;99001.44;;;18.99;44.70
52975;BME280;38839;45.186;5.720;2023-04-19T11:29:42;98997.94;;;18.98;44.58
52975;BME280;38839;45.186;5.720;2023-04-19T11:32:07;98996.84;;;19.04;44.67
52975;BME280;38839;45.186;5.720;2023-04-19T11:34:37;98979.78;;;19.11;44.18
52975;BME280;38839;45.186;5.720;2023-04-19T11:37:03;98979.13;;;19.06;44.39
52975;BME280;38839;45.186;5.720;2023-04-19T11:39:28;98980.28;;;19.21;44.11
52975;BME280;38839;45.186;5.720;2023-04-19T11:41:54;98974.69;;;19.28;42.83
52975;BME280;38839;45.186;5.720;2023-04-19T11:44:20;98970.19;;;19.30;42.77
52975;BME280;38839;45.186;5.720;2023-04-19T11:46:59;98957.34;;;19.42;41.98
52975;BME280;38839;45.186;5.720;2023-04-19T11:49:28;98953.59;;;19.68;41.36
52975;BME280;38839;45.186;5.720;2023-04-19T11:51:57;98948.53;;;19.84;41.37
52975;BME280;38839;45.186;5.720;2023-04-19T11:54:23;98940.53;;;19.85;41.54
52975;BME280;38839;45.186;5.720;2023-04-19T11:57:25;98935.75;;;19.94;40.81
52975;BME280;38839;45.186;5.720;2023-04-19T12:00:07;98927.19;;;19.87;40.48
52975;BME280;38839;45.186;5.720;2023-04-19T12:02:42;98936.22;;;19.83;41.45
52975;BME280;38839;45.186;5.720;2023-04-19T12:05:14;98926.66;;;19.99;41.24
52975;BME280;38839;45.186;5.720;2023-04-19T12:07:59;98913.91;;;20.07;41.63
52975;BME280;38839;45.186;5.720;2023-04-19T12:10:25;98909.41;;;20.09;42.01
52975;BME280;38839;45.186;5.720;2023-04-19T12:12:50;98910.22;;;20.12;42.40
52975;BME280;38839;45.186;5.720;2023-04-19T12:15:15;98899.31;;;20.18;42.05
52975;BME280;38839;45.186;5.720;2023-04-19T12:17:58;98901.84;;;20.21;41.79
52975;BME280;38839;45.186;5.720;2023-04-19T12:20:36;98895.53;;;20.04;41.54
52975;BME280;38839;45.186;5.720;2023-04-19T12:23:02;98890.38;;;20.01;41.64
52975;BME280;38839;45.186;5.720;2023-04-19T12:25:32;98890.88;;;20.09;39.60
52975;BME280;38839;45.186;5.720;2023-04-19T12:28:02;98892.31;;;20.17;38.92
52975;BME280;38839;45.186;5.720;2023-04-19T12:30:28;98894.53;;;20.45;37.81
52975;BME280;38839;45.186;5.720;2023-04-19T12:32:57;98884.56;;;20.50;37.51
52975;BME280;38839;45.186;5.720;2023-04-19T12:35:25;98884.34;;;20.55;37.10
52975;BME280;38839;45.186;5.720;2023-04-19T12:37:55;98881.34;;;20.43;35.78
52975;BME280;38839;45.186;5.720;2023-04-19T12:40:24;98876.13;;;20.42;35.65
52975;BME280;38839;45.186;5.720;2023-04-19T12:42:50;98879.00;;;20.37;35.49
52975;BME280;38839;45.186;5.720;2023-04-19T12:45:16;98876.13;;;20.42;35.16
52975;BME280;38839;45.186;5.720;2023-04-19T12:47:43;98868.25;;;20.40;34.95
52975;BME280;38839;45.186;5.720;2023-04-19T12:50:09;98855.66;;;20.45;34.85
52975;BME280;38839;45.186;5.720;2023-04-19T12:52:37;98854.00;;;20.79;35.36
52975;BME280;38839;45.186;5.720;2023-04-19T12:55:03;98855.38;;;20.88;35.13
52975;BME280;38839;45.186;5.720;2023-04-19T12:57:33;98844.66;;;20.89;34.22
52975;BME280;38839;45.186;5.720;2023-04-19T13:00:01;98849.53;;;20.99;33.89
52975;BME280;38839;45.186;5.720;2023-04-19T13:02:28;98847.72;;;20.99;34.47
52975;BME280;38839;45.186;5.720;2023-04-19T13:04:54;98825.19;;;20.90;34.39
52975;BME280;38839;45.186;5.720;2023-04-19T13:07:19;98835.47;;;20.97;34.25
52975;BME280;38839;45.186;5.720;2023-04-19T13:09:47;98828.13;;;21.02;34.33
52975;BME280;38839;45.186;5.720;2023-04-19T13:12:13;98813.13;;;21.18;33.38
52975;BME280;38839;45.186;5.720;2023-04-19T13:14:38;98804.84;;;21.24;32.27
52975;BME280;38839;45.186;5.720;2023-04-19T13:17:03;98796.75;;;21.27;31.28
52975;BME280;38839;45.186;5.720;2023-04-19T13:19:29;98788.44;;;21.51;30.76